Terminal Aerodrome Forecast
Issued by NWS

Home | Current Version | Previous Version | Text Only | Print | Product List | Glossary On
Versions: 1 2 3 4 5 6 7 8 9 10 11 12 13 14 15 16 17 18 19 20 21 22 23
912
FTPA31 PHFO 241012 AAD
TAFHMK
TAF AMD
PHMK 241012Z 2410/2506 03010G18KT 6SM -SHRA BKN020 BKN035
      TEMPO 2410/2412 4SM SHRA BR BKN015 OVC025
     FM242000 06009KT P6SM VCSH SCT020 BKN050
     FM250400 VRB05KT P6SM FEW020 SCT045=

USA.gov is the U.S. government's official web portal to all federal, state and local government web resources and services.